createdAt,value
2019-06-08T00:05:02.956Z,18.80
2019-06-08T00:10:09.105Z,18.80
2019-06-08T00:15:14.537Z,18.79
2019-06-08T00:20:20.048Z,18.73
2019-06-08T00:25:25.563Z,18.68
2019-06-08T00:30:31.007Z,18.65
2019-06-08T00:35:36.520Z,18.61
2019-06-08T00:40:42.011Z,18.52
2019-06-08T00:45:47.501Z,18.43
2019-06-08T00:50:52.931Z,18.35
2019-06-08T00:55:58.411Z,18.26
2019-06-08T01:01:03.881Z,18.22
2019-06-08T01:06:09.359Z,18.21
2019-06-08T01:11:14.929Z,18.14
2019-06-08T01:16:20.962Z,18.07
2019-06-08T01:21:27.681Z,17.99
2019-06-08T01:26:33.316Z,17.91
2019-06-08T01:31:38.864Z,17.90
2019-06-08T01:36:44.406Z,17.87
2019-06-08T01:41:49.886Z,17.88
2019-06-08T01:46:55.345Z,17.95
2019-06-08T01:52:00.820Z,18.00
2019-06-08T01:57:06.395Z,18.05
2019-06-08T02:02:11.831Z,18.11
2019-06-08T02:07:17.393Z,18.14
2019-06-08T02:12:22.950Z,18.15
2019-06-08T02:17:29.379Z,18.16
2019-06-08T02:22:35.178Z,18.17
2019-06-08T02:27:40.832Z,18.16
2019-06-08T02:32:46.268Z,18.15
2019-06-08T02:37:51.674Z,18.13
2019-06-08T02:42:57.174Z,18.09
2019-06-08T02:48:02.649Z,18.09
2019-06-08T02:53:08.134Z,18.04
2019-06-08T02:58:13.587Z,18.03
2019-06-08T03:03:19.254Z,18.03
2019-06-08T03:08:24.738Z,18.01
2019-06-08T03:13:31.208Z,17.91
2019-06-08T03:18:38.203Z,17.85
2019-06-08T03:23:44.346Z,17.83
2019-06-08T03:28:49.816Z,17.81
2019-06-08T03:33:56.625Z,17.80
2019-06-08T03:39:02.390Z,17.80
2019-06-08T03:44:07.915Z,17.81
2019-06-08T03:49:13.354Z,17.82
2019-06-08T03:54:18.842Z,17.79
2019-06-08T03:59:24.301Z,17.77
2019-06-08T04:04:29.742Z,17.75
2019-06-08T04:09:35.161Z,17.77
2019-06-08T04:14:42.189Z,17.78
2019-06-08T04:20:06.393Z,17.79
2019-06-08T04:24:54.984Z,17.78
2019-06-08T04:30:00.422Z,17.77
2019-06-08T04:35:05.986Z,17.78
2019-06-08T04:40:11.471Z,17.74
2019-06-08T04:45:16.904Z,17.71
2019-06-08T04:50:24.028Z,17.73
2019-06-08T04:55:29.520Z,17.77
2019-06-08T05:00:34.992Z,17.81
2019-06-08T05:05:41.047Z,17.77
2019-06-08T05:10:47.416Z,17.80
2019-06-08T05:15:53.059Z,18.00
2019-06-08T05:20:58.510Z,18.31
2019-06-08T05:26:03.958Z,18.52
2019-06-08T05:31:09.424Z,18.53
2019-06-08T05:36:14.892Z,18.75
2019-06-08T05:41:23.366Z,18.98
2019-06-08T05:46:29.219Z,18.98
2019-06-08T05:51:34.681Z,18.92
2019-06-08T05:56:40.202Z,18.90
2019-06-08T06:01:46.761Z,18.96
2019-06-08T06:06:52.361Z,19.11
2019-06-08T06:11:57.844Z,19.15
2019-06-08T06:17:03.314Z,19.08
2019-06-08T06:22:08.733Z,18.96
2019-06-08T06:27:14.229Z,18.89
2019-06-08T06:32:19.759Z,18.90
2019-06-08T06:37:25.266Z,18.99
2019-06-08T06:42:30.757Z,19.27
2019-06-08T06:47:36.214Z,19.65
2019-06-08T06:52:42.768Z,19.99
2019-06-08T06:57:49.251Z,20.00
2019-06-08T07:02:54.814Z,19.95
2019-06-08T07:08:00.275Z,20.08
2019-06-08T07:13:05.743Z,20.04
2019-06-08T07:18:11.218Z,19.93
2019-06-08T07:23:16.702Z,20.09
2019-06-08T07:28:22.532Z,20.46
2019-06-08T07:33:27.966Z,21.11
2019-06-08T07:38:33.392Z,21.71
2019-06-08T07:43:38.842Z,22.11
2019-06-08T07:48:44.320Z,22.14
2019-06-08T07:53:50.375Z,21.80
2019-06-08T07:58:57.317Z,21.44
2019-06-08T08:04:02.889Z,21.25
2019-06-08T08:09:09.116Z,21.24
2019-06-08T08:14:14.718Z,21.23
2019-06-08T08:19:20.297Z,21.29
2019-06-08T08:24:27.178Z,21.33
2019-06-08T08:29:32.957Z,21.21
2019-06-08T08:34:38.401Z,21.10
2019-06-08T08:39:43.868Z,20.87
2019-06-08T08:44:51.010Z,20.61
2019-06-08T08:49:58.723Z,20.33
2019-06-08T08:55:04.033Z,20.06
2019-06-08T09:00:09.591Z,19.86
2019-06-08T09:05:15.061Z,19.82
2019-06-08T09:10:20.684Z,20.23
2019-06-08T09:15:28.774Z,23.45
2019-06-08T09:20:33.446Z,26.27
2019-06-08T09:25:40.687Z,26.69
2019-06-08T09:30:48.223Z,26.77
2019-06-08T09:35:54.726Z,26.35
2019-06-08T09:41:03.390Z,25.75
2019-06-08T09:46:09.155Z,24.78
2019-06-08T09:51:14.727Z,23.83
2019-06-08T09:56:20.230Z,23.10
2019-06-08T10:01:25.675Z,22.66
2019-06-08T10:06:31.095Z,22.55
2019-06-08T10:11:37.991Z,22.63
2019-06-08T10:16:43.613Z,23.39
2019-06-08T10:21:49.063Z,24.22
2019-06-08T10:26:55.150Z,24.55
2019-06-08T10:32:01.573Z,24.44
2019-06-08T10:37:12.710Z,24.50
2019-06-08T10:42:14.317Z,24.48
2019-06-08T10:47:19.760Z,24.65
2019-06-08T10:52:27.984Z,24.52
2019-06-08T10:57:32.551Z,24.61
2019-06-08T11:02:40.623Z,24.95
2019-06-08T11:07:47.880Z,25.32
2019-06-08T11:12:52.564Z,25.33
2019-06-08T11:18:01.696Z,25.54
2019-06-08T11:23:05.676Z,25.60
2019-06-08T11:28:14.837Z,25.53
2019-06-08T11:33:18.817Z,25.48
2019-06-08T11:38:24.273Z,25.44
2019-06-08T11:43:29.789Z,25.25
2019-06-08T11:48:39.207Z,25.11
2019-06-08T11:53:42.604Z,25.02
2019-06-08T11:58:48.562Z,25.08
2019-06-08T12:03:54.232Z,25.17
2019-06-08T12:09:00.289Z,25.12
2019-06-08T12:14:08.113Z,25.13
2019-06-08T12:19:16.846Z,25.40
2019-06-08T12:24:20.587Z,25.58
2019-06-08T12:29:28.220Z,25.61
2019-06-08T12:34:33.350Z,25.77
2019-06-08T12:39:39.345Z,25.69
2019-06-08T12:44:44.819Z,25.37
2019-06-08T12:49:50.279Z,25.18
2019-06-08T12:55:03.505Z,25.12
2019-06-08T13:00:03.042Z,25.18
2019-06-08T13:05:12.522Z,25.30
2019-06-08T13:10:15.734Z,25.33
2019-06-08T13:15:21.954Z,25.41
2019-06-08T13:20:28.353Z,25.53
2019-06-08T13:25:40.197Z,25.53
2019-06-08T13:30:41.155Z,25.51
2019-06-08T13:35:48.050Z,25.38
2019-06-08T13:40:53.564Z,25.10
2019-06-08T13:45:59.018Z,25.14
2019-06-08T13:51:04.545Z,25.10
2019-06-08T13:56:10.111Z,25.22
2019-06-08T14:01:15.593Z,25.25
2019-06-08T14:06:22.192Z,25.22
2019-06-08T14:11:28.613Z,25.24
2019-06-08T14:16:34.271Z,25.29
2019-06-08T14:21:41.719Z,25.24
2019-06-08T14:26:48.590Z,25.14
2019-06-08T14:31:54.359Z,25.06
2019-06-08T14:36:59.924Z,24.87
2019-06-08T14:42:05.364Z,24.52
2019-06-08T14:47:16.887Z,24.29
2019-06-08T14:52:24.166Z,24.64
2019-06-08T14:57:30.898Z,24.78
2019-06-08T15:02:37.945Z,24.92
2019-06-08T15:07:43.674Z,25.16
2019-06-08T15:12:49.232Z,25.11
2019-06-08T15:17:54.806Z,24.87
2019-06-08T15:23:00.224Z,24.52
2019-06-08T15:28:08.022Z,24.28
2019-06-08T15:33:13.098Z,24.19
2019-06-08T15:38:20.854Z,24.26
2019-06-08T15:43:29.168Z,24.16
2019-06-08T15:48:34.252Z,24.01
2019-06-08T15:53:40.408Z,23.98
2019-06-08T15:58:48.523Z,24.07
2019-06-08T16:03:53.208Z,24.35
2019-06-08T16:08:58.640Z,24.45
2019-06-08T16:14:04.113Z,24.22
2019-06-08T16:19:09.625Z,23.89
2019-06-08T16:24:15.269Z,23.83
2019-06-08T16:29:20.869Z,23.83
2019-06-08T16:34:27.300Z,23.85
2019-06-08T16:39:32.896Z,23.86
2019-06-08T16:44:38.658Z,23.64
2019-06-08T16:49:44.209Z,23.33
2019-06-08T16:54:49.724Z,23.10
2019-06-08T16:59:55.182Z,23.05
2019-06-08T17:05:00.703Z,23.05
2019-06-08T17:10:06.334Z,23.01
2019-06-08T17:15:11.771Z,22.86
2019-06-08T17:20:17.234Z,22.48
2019-06-08T17:25:22.700Z,21.80
2019-06-08T17:30:28.152Z,21.46
2019-06-08T17:35:35.520Z,21.47
2019-06-08T17:40:42.265Z,21.63
2019-06-08T17:45:48.131Z,21.75
2019-06-08T17:50:53.604Z,21.88
2019-06-08T17:55:59.088Z,21.78
2019-06-08T18:01:04.574Z,21.47
2019-06-08T18:06:10.045Z,21.07
2019-06-08T18:11:17.370Z,20.75
2019-06-08T18:16:22.715Z,20.53
2019-06-08T18:21:28.361Z,20.38
2019-06-08T18:26:34.358Z,20.28
2019-06-08T18:31:42.491Z,20.23
2019-06-08T18:36:47.934Z,20.21
2019-06-08T18:41:53.557Z,20.15
2019-06-08T18:46:59.164Z,20.10
2019-06-08T18:52:04.594Z,20.05
2019-06-08T18:57:11.384Z,19.92
2019-06-08T19:02:18.018Z,19.78
2019-06-08T19:07:23.525Z,19.68
2019-06-08T19:12:28.994Z,19.62
2019-06-08T19:17:34.463Z,19.57
2019-06-08T19:22:43.802Z,19.57
2019-06-08T19:27:52.989Z,19.54
2019-06-08T19:32:54.615Z,19.46
2019-06-08T19:38:00.054Z,19.30
2019-06-08T19:43:07.566Z,19.13
2019-06-08T19:48:12.805Z,18.95
2019-06-08T19:53:18.439Z,18.74
2019-06-08T19:58:23.848Z,18.49
2019-06-08T20:03:29.372Z,18.26
2019-06-08T20:08:34.856Z,18.07
2019-06-08T20:13:41.211Z,17.89
2019-06-08T20:18:48.651Z,17.72
2019-06-08T20:23:53.906Z,17.57
2019-06-08T20:29:12.191Z,17.47
2019-06-08T20:34:07.038Z,17.41
2019-06-08T20:39:12.637Z,17.36
2019-06-08T20:44:18.191Z,17.29
2019-06-08T20:49:23.624Z,17.21
2019-06-08T20:54:29.123Z,17.12
2019-06-08T20:59:34.572Z,17.03
2019-06-08T21:04:40.111Z,16.94
2019-06-08T21:09:49.602Z,16.86
2019-06-08T21:14:55.417Z,16.77
2019-06-08T21:20:01.027Z,16.68
2019-06-08T21:25:08.649Z,16.60
2019-06-08T21:30:21.605Z,16.51
2019-06-08T21:35:21.066Z,16.44
2019-06-08T21:40:28.111Z,16.36
2019-06-08T21:45:33.804Z,16.28
2019-06-08T21:50:39.269Z,16.22
2019-06-08T21:55:44.779Z,16.15
2019-06-08T22:00:51.062Z,16.09
2019-06-08T22:05:58.904Z,16.01
2019-06-08T22:11:03.910Z,15.96
2019-06-08T22:16:09.345Z,15.91
2019-06-08T22:21:17.911Z,15.87
2019-06-08T22:26:21.988Z,15.82
2019-06-08T22:31:27.760Z,15.77
2019-06-08T22:36:33.674Z,15.71
2019-06-08T22:41:39.250Z,15.65
2019-06-08T22:46:44.717Z,15.60
2019-06-08T22:51:50.125Z,15.54
2019-06-08T22:56:55.611Z,15.50
2019-06-08T23:02:04.096Z,15.45
2019-06-08T23:07:10.790Z,15.40
2019-06-08T23:12:18.040Z,15.36
2019-06-08T23:17:22.702Z,15.33
2019-06-08T23:22:28.259Z,15.31
2019-06-08T23:27:33.761Z,15.29
2019-06-08T23:32:39.272Z,15.27
2019-06-08T23:37:44.721Z,15.26
2019-06-08T23:42:50.184Z,15.24
2019-06-08T23:47:58.350Z,15.22
2019-06-08T23:53:02.881Z,15.21
2019-06-08T23:58:11.190Z,15.19
